KCIN

Arthur N Neu Airport

Carroll, Iowa, USA
METAR KCIN 170555Z AUTO 36007KT 8SM CLR M02/M04 A3001 RMK AO2
Observed Flight Rules
Dec-17 @ 05:55 UTC (25 minutes ago) Visual Flight Rules
Wind Visibility Clouds
360° at 7 knots 8 miles
  • Clear skies
Temperatures Readings
Current -2°C / 28°F
Dewpoint -4°C / 25°F
Humidity 86%
Altimeter 30.01" Hg
Pressure 1016 hPa
Elevation 375
METAR KCIN 170555Z AUTO 36007KT 8SM CLR M02/M04 A3001 RMK AO2
Observed Flight Rules
Dec-17 @ 05:55 UTC
(25 minutes ago)
VFR
Wind Visibility
360° at 7 knots 8 miles
Clouds
  • Clear skies
Temperature Dewpoint
-2°C / 28°F -4°C / 25°F
Humidity Altimeter Pressure
86% 30.01" Hg 1016 hPa